createdAt,value
2023-10-16T00:02:14.668Z,99.90
2023-10-16T00:04:48.165Z,99.90
2023-10-16T00:07:15.496Z,99.90
2023-10-16T00:09:42.787Z,99.90
2023-10-16T00:12:09.848Z,99.90
2023-10-16T00:14:37.295Z,99.90
2023-10-16T00:17:09.558Z,99.90
2023-10-16T00:19:38.948Z,99.90
2023-10-16T00:22:17.283Z,99.90
2023-10-16T00:24:47.537Z,99.90
2023-10-16T00:27:17.100Z,99.90
2023-10-16T00:29:44.136Z,99.90
2023-10-16T00:32:12.831Z,99.90
2023-10-16T00:34:42.319Z,99.90
2023-10-16T00:37:09.423Z,99.90
2023-10-16T00:39:38.827Z,99.90
2023-10-16T00:42:10.561Z,99.90
2023-10-16T00:44:40.614Z,99.90
2023-10-16T00:47:09.045Z,99.90
2023-10-16T00:49:36.282Z,99.90
2023-10-16T00:52:05.306Z,99.90
2023-10-16T00:54:34.664Z,99.90
2023-10-16T00:57:01.688Z,99.90
2023-10-16T00:59:29.031Z,99.90
2023-10-16T01:02:07.862Z,99.90
2023-10-16T01:04:35.069Z,99.90
2023-10-16T01:07:07.214Z,99.90
2023-10-16T01:09:37.710Z,99.90
2023-10-16T01:12:08.506Z,99.90
2023-10-16T01:14:36.768Z,99.90
2023-10-16T01:17:04.773Z,99.90
2023-10-16T01:19:32.869Z,99.90
2023-10-16T01:22:02.681Z,99.90
2023-10-16T01:24:32.276Z,99.90
2023-10-16T01:27:11.617Z,99.90
2023-10-16T01:29:38.682Z,99.90
2023-10-16T01:32:06.732Z,99.90
2023-10-16T01:34:33.826Z,99.90
2023-10-16T01:37:10.408Z,99.90
2023-10-16T01:39:49.441Z,99.90
2023-10-16T01:42:17.133Z,99.90
2023-10-16T01:44:44.811Z,99.90
2023-10-16T01:47:19.368Z,99.90
2023-10-16T01:49:49.445Z,99.90
2023-10-16T01:52:17.040Z,99.90
2023-10-16T01:54:46.326Z,99.90
2023-10-16T01:57:15.414Z,99.90
2023-10-16T01:59:43.953Z,99.90
2023-10-16T02:02:12.722Z,99.90
2023-10-16T02:04:41.009Z,99.90
2023-10-16T02:07:09.862Z,99.90
2023-10-16T02:09:40.582Z,99.90
2023-10-16T02:12:12.469Z,99.90
2023-10-16T02:14:42.052Z,99.90
2023-10-16T02:17:30.048Z,99.90
2023-10-16T02:19:57.182Z,99.90
2023-10-16T02:22:24.083Z,99.90
2023-10-16T02:24:51.778Z,99.90
2023-10-16T02:27:20.158Z,99.90
2023-10-16T02:29:50.124Z,99.90
2023-10-16T02:32:17.858Z,99.90
2023-10-16T02:34:44.905Z,99.90
2023-10-16T02:37:15.167Z,99.90
2023-10-16T02:39:45.712Z,99.90
2023-10-16T02:42:15.891Z,99.90
2023-10-16T02:44:49.449Z,99.90
2023-10-16T02:47:28.242Z,99.90
2023-10-16T02:49:58.182Z,99.90
2023-10-16T02:52:26.611Z,99.90
2023-10-16T02:54:58.723Z,99.90
2023-10-16T02:57:27.423Z,99.90
2023-10-16T02:59:54.886Z,99.90
2023-10-16T03:02:27.155Z,99.90
2023-10-16T03:05:11.863Z,99.90
2023-10-16T03:07:46.373Z,99.90
2023-10-16T03:10:13.783Z,99.90
2023-10-16T03:12:47.296Z,99.90
2023-10-16T03:15:16.936Z,99.90
2023-10-16T03:17:44.010Z,99.90
2023-10-16T03:20:21.427Z,99.90
2023-10-16T03:22:54.611Z,99.90
2023-10-16T03:25:32.088Z,99.90
2023-10-16T03:28:01.981Z,99.90
2023-10-16T03:30:30.595Z,99.90
2023-10-16T03:32:59.610Z,99.90
2023-10-16T03:35:27.562Z,99.90
2023-10-16T03:37:55.699Z,99.90
2023-10-16T03:40:26.069Z,99.90
2023-10-16T03:42:55.076Z,99.90
2023-10-16T03:45:22.694Z,99.90
2023-10-16T03:47:58.824Z,99.90
2023-10-16T03:50:28.916Z,99.90
2023-10-16T03:52:59.116Z,99.90
2023-10-16T03:55:27.982Z,99.90
2023-10-16T03:57:56.965Z,99.90
2023-10-16T04:00:42.929Z,99.90
2023-10-16T04:03:10.870Z,99.90
2023-10-16T04:05:48.727Z,99.90
2023-10-16T04:08:20.004Z,99.90
2023-10-16T04:10:47.985Z,99.90
2023-10-16T04:13:15.826Z,99.90
2023-10-16T04:15:43.090Z,99.90
2023-10-16T04:18:28.374Z,99.90
2023-10-16T04:21:14.792Z,99.90
2023-10-16T04:23:51.283Z,99.90
2023-10-16T04:26:28.759Z,99.90
2023-10-16T04:29:12.895Z,99.90
2023-10-16T04:31:57.482Z,99.90
2023-10-16T04:34:26.744Z,99.90
2023-10-16T04:36:54.687Z,99.90
2023-10-16T04:39:40.956Z,99.90
2023-10-16T04:42:43.376Z,99.90
2023-10-16T04:45:17.074Z,99.90
2023-10-16T04:47:54.116Z,99.90
2023-10-16T04:53:10.586Z,99.90
2023-10-16T04:55:41.622Z,99.90
2023-10-16T04:58:21.260Z,99.90
2023-10-16T05:00:58.411Z,99.90
2023-10-16T05:03:26.918Z,99.90
2023-10-16T05:06:07.280Z,99.90
2023-10-16T05:08:50.345Z,99.90
2023-10-16T05:11:29.001Z,99.90
2023-10-16T05:14:14.209Z,99.90
2023-10-16T05:16:49.021Z,99.90
2023-10-16T05:19:22.542Z,99.90
2023-10-16T05:21:55.598Z,99.90
2023-10-16T05:24:41.108Z,99.90
2023-10-16T05:27:26.765Z,99.90
2023-10-16T05:30:12.228Z,99.90
2023-10-16T05:32:57.901Z,99.90
2023-10-16T05:35:43.179Z,99.90
2023-10-16T05:38:28.745Z,99.90
2023-10-16T05:41:26.839Z,99.90
2023-10-16T05:44:12.244Z,99.90
2023-10-16T05:46:58.060Z,99.90
2023-10-16T05:49:43.612Z,99.90
2023-10-16T05:52:29.223Z,99.90
2023-10-16T05:55:14.754Z,99.90
2023-10-16T05:58:03.690Z,99.90
2023-10-16T06:00:49.316Z,99.90
2023-10-16T06:03:35.007Z,99.90
2023-10-16T06:06:20.792Z,99.90
2023-10-16T06:09:06.403Z,99.90
2023-10-16T06:11:51.846Z,99.90
2023-10-16T06:14:18.694Z,99.90
2023-10-16T06:16:48.922Z,99.90
2023-10-16T06:19:16.221Z,99.90
2023-10-16T06:21:49.538Z,99.90
2023-10-16T06:24:27.516Z,99.90
2023-10-16T06:27:00.924Z,99.90
2023-10-16T06:29:35.718Z,99.90
2023-10-16T06:32:07.596Z,99.90
2023-10-16T06:34:34.982Z,99.90
2023-10-16T06:37:08.089Z,99.90
2023-10-16T06:39:37.946Z,99.90
2023-10-16T06:42:05.577Z,99.90
2023-10-16T06:44:37.411Z,99.90
2023-10-16T06:47:04.297Z,99.90
2023-10-16T06:49:38.561Z,99.90
2023-10-16T06:52:06.344Z,99.90
2023-10-16T06:54:33.852Z,99.90
2023-10-16T06:57:12.142Z,99.90
2023-10-16T06:59:39.345Z,99.90
2023-10-16T07:02:06.623Z,99.90
2023-10-16T07:04:33.617Z,99.90
2023-10-16T07:07:00.888Z,99.90
2023-10-16T07:09:38.025Z,99.90
2023-10-16T07:12:05.190Z,99.90
2023-10-16T07:14:32.918Z,99.90
2023-10-16T07:17:00.308Z,99.90
2023-10-16T07:19:27.155Z,99.90
2023-10-16T07:21:55.897Z,50.80
2023-10-16T07:24:22.978Z,99.90
2023-10-16T07:26:50.432Z,90.70
2023-10-16T07:29:17.238Z,24.60
2023-10-16T07:31:44.105Z,93.80
2023-10-16T07:34:10.976Z,1.00
2023-10-16T07:36:38.234Z,17.40
2023-10-16T07:39:05.294Z,99.90
2023-10-16T07:41:34.515Z,99.90
2023-10-16T07:44:05.845Z,1.00
2023-10-16T07:46:32.902Z,1.00
2023-10-16T07:49:04.635Z,1.00
2023-10-16T07:51:31.718Z,99.90
2023-10-16T07:53:58.679Z,23.60
2023-10-16T07:56:26.450Z,99.90
2023-10-16T07:58:58.204Z,99.90
2023-10-16T08:01:38.215Z,1.00
2023-10-16T08:04:08.568Z,1.00
2023-10-16T08:06:40.448Z,99.90
2023-10-16T08:09:26.054Z,99.90
2023-10-16T08:12:00.293Z,1.00
2023-10-16T08:14:28.862Z,1.00
2023-10-16T08:17:22.378Z,1.00
2023-10-16T08:19:50.818Z,1.00
2023-10-16T08:22:17.805Z,1.00
2023-10-16T08:24:59.103Z,99.90
2023-10-16T08:27:45.158Z,99.90
2023-10-16T08:30:31.643Z,1.00
2023-10-16T08:33:10.864Z,99.90
2023-10-16T08:35:40.980Z,99.90
2023-10-16T08:38:12.686Z,99.90
2023-10-16T08:40:44.128Z,99.90
2023-10-16T08:43:11.571Z,99.90
2023-10-16T08:45:50.820Z,99.90
2023-10-16T08:48:19.140Z,99.90
2023-10-16T08:50:53.962Z,99.90
2023-10-16T08:53:34.151Z,99.90
2023-10-16T08:56:10.005Z,99.90
2023-10-16T08:58:46.870Z,99.90
2023-10-16T09:01:15.562Z,99.90
2023-10-16T09:03:58.099Z,99.90
2023-10-16T09:06:25.618Z,99.90
2023-10-16T09:08:53.242Z,99.90
2023-10-16T09:11:20.695Z,88.70
2023-10-16T09:13:52.918Z,99.90
2023-10-16T09:16:27.549Z,99.90
2023-10-16T09:18:55.209Z,99.90
2023-10-16T09:21:25.501Z,1.00
2023-10-16T09:23:52.934Z,99.90
2023-10-16T09:26:30.437Z,99.90
2023-10-16T09:29:05.524Z,99.90
2023-10-16T09:31:33.100Z,99.90
2023-10-16T09:34:00.059Z,99.90
2023-10-16T09:36:31.243Z,99.90
2023-10-16T09:39:00.736Z,99.90
2023-10-16T09:41:27.842Z,99.90
2023-10-16T09:44:07.519Z,99.90
2023-10-16T09:46:54.177Z,99.90
2023-10-16T09:49:22.611Z,1.00
2023-10-16T09:52:03.316Z,99.90
2023-10-16T09:54:33.534Z,99.90
2023-10-16T09:57:00.924Z,99.90
2023-10-16T09:59:33.316Z,99.90
2023-10-16T10:02:07.159Z,99.90
2023-10-16T10:04:36.780Z,1.00
2023-10-16T10:07:12.693Z,59.30
2023-10-16T10:09:43.870Z,1.00
2023-10-16T10:12:29.587Z,7.40
2023-10-16T10:15:13.498Z,20.10
2023-10-16T10:17:41.535Z,1.00
2023-10-16T10:20:10.267Z,15.00
2023-10-16T10:22:37.655Z,1.00
2023-10-16T10:25:22.052Z,1.00
2023-10-16T10:27:49.503Z,1.00
2023-10-16T10:30:18.697Z,1.00
2023-10-16T10:32:53.025Z,1.00
2023-10-16T10:35:22.716Z,1.00
2023-10-16T10:37:49.820Z,1.00
2023-10-16T10:40:23.271Z,1.00
2023-10-16T10:42:58.395Z,1.00
2023-10-16T10:45:41.251Z,1.00
2023-10-16T10:48:11.001Z,1.00
2023-10-16T10:50:42.067Z,99.90
2023-10-16T10:53:15.453Z,99.90
2023-10-16T10:55:58.449Z,99.90
2023-10-16T10:58:34.467Z,99.90
2023-10-16T11:01:17.667Z,99.90
2023-10-16T11:03:48.711Z,99.90
2023-10-16T11:06:19.223Z,99.90
2023-10-16T11:08:51.140Z,99.90
2023-10-16T11:11:18.017Z,99.90
2023-10-16T11:13:45.530Z,99.90
2023-10-16T11:16:12.680Z,99.90
2023-10-16T11:18:39.815Z,99.90
2023-10-16T11:21:07.175Z,99.90
2023-10-16T11:23:39.675Z,99.90
2023-10-16T11:26:07.853Z,99.90
2023-10-16T11:28:36.429Z,99.90
2023-10-16T11:31:13.103Z,99.90
2023-10-16T11:33:48.833Z,99.90
2023-10-16T11:36:21.324Z,99.90
2023-10-16T11:38:49.147Z,99.90
2023-10-16T11:41:21.143Z,99.90
2023-10-16T11:43:55.369Z,99.90
2023-10-16T11:46:35.853Z,99.90
2023-10-16T11:49:24.183Z,99.90
2023-10-16T11:51:52.699Z,99.90
2023-10-16T11:54:21.491Z,99.90
2023-10-16T11:56:49.035Z,99.90
2023-10-16T11:59:16.924Z,99.90
2023-10-16T12:02:01.022Z,99.90
2023-10-16T12:04:31.994Z,99.90
2023-10-16T12:06:59.874Z,99.90
2023-10-16T12:09:29.350Z,99.90
2023-10-16T12:11:57.275Z,99.90
2023-10-16T12:14:26.147Z,99.90
2023-10-16T12:16:54.127Z,99.90
2023-10-16T12:19:21.322Z,99.90
2023-10-16T12:21:54.040Z,99.90
2023-10-16T12:24:22.065Z,99.90
2023-10-16T12:26:49.207Z,99.90
2023-10-16T12:29:16.344Z,99.90
2023-10-16T12:31:43.373Z,99.90
2023-10-16T12:34:13.645Z,99.90
2023-10-16T12:36:41.912Z,99.90
2023-10-16T12:39:18.036Z,99.90
2023-10-16T12:41:45.786Z,99.90
2023-10-16T12:44:14.489Z,99.90
2023-10-16T12:46:44.829Z,99.90
2023-10-16T12:49:12.114Z,99.90
2023-10-16T12:51:40.274Z,99.90
2023-10-16T12:54:07.988Z,99.90
2023-10-16T12:56:36.583Z,99.90
2023-10-16T12:59:04.765Z,99.90
2023-10-16T13:01:31.679Z,99.90
2023-10-16T13:04:01.714Z,99.90
2023-10-16T13:06:30.278Z,99.90
2023-10-16T13:08:58.247Z,99.90
2023-10-16T13:11:26.014Z,99.90
2023-10-16T13:13:53.602Z,99.90
2023-10-16T13:16:27.326Z,99.90
2023-10-16T13:18:58.659Z,99.90
2023-10-16T13:21:35.399Z,99.90
2023-10-16T13:24:21.273Z,99.90
2023-10-16T13:26:54.930Z,99.90
2023-10-16T13:29:22.354Z,99.90
2023-10-16T13:31:50.114Z,99.90
2023-10-16T13:34:17.463Z,99.90
2023-10-16T13:37:02.786Z,99.90
2023-10-16T13:39:32.928Z,99.90
2023-10-16T13:42:00.744Z,99.90
2023-10-16T13:44:27.860Z,99.90
2023-10-16T13:46:55.248Z,99.90
2023-10-16T13:49:25.285Z,99.90
2023-10-16T13:51:55.236Z,99.90
2023-10-16T13:54:22.506Z,99.90
2023-10-16T13:56:50.972Z,99.90
2023-10-16T13:59:21.464Z,99.90
2023-10-16T14:01:48.691Z,99.90
2023-10-16T14:04:16.419Z,99.90
2023-10-16T14:06:45.580Z,99.90
2023-10-16T14:09:12.920Z,99.90
2023-10-16T14:11:49.107Z,99.90
2023-10-16T14:14:23.035Z,99.90
2023-10-16T14:16:53.773Z,99.90
2023-10-16T14:19:24.526Z,99.90
2023-10-16T14:21:56.472Z,99.90
2023-10-16T14:24:25.917Z,99.90
2023-10-16T14:26:56.454Z,99.90
2023-10-16T14:29:28.581Z,99.90
2023-10-16T14:31:57.747Z,99.90
2023-10-16T14:34:28.259Z,99.90
2023-10-16T14:36:56.303Z,99.90
2023-10-16T14:39:29.436Z,99.90
2023-10-16T14:42:02.943Z,99.90
2023-10-16T14:44:30.055Z,99.90
2023-10-16T14:46:58.136Z,99.90
2023-10-16T14:49:28.493Z,99.90
2023-10-16T14:51:55.777Z,99.90
2023-10-16T14:54:23.441Z,99.90
2023-10-16T14:56:52.757Z,99.90
2023-10-16T14:59:28.743Z,99.90
2023-10-16T15:01:56.794Z,99.90
2023-10-16T15:04:26.033Z,99.90
2023-10-16T15:06:53.345Z,99.90
2023-10-16T15:09:20.200Z,99.90
2023-10-16T15:11:47.248Z,99.90
2023-10-16T15:14:14.505Z,99.90
2023-10-16T15:16:42.114Z,99.90
2023-10-16T15:19:09.525Z,99.90
2023-10-16T15:21:37.622Z,99.90
2023-10-16T15:24:05.652Z,99.90
2023-10-16T15:26:33.183Z,99.90
2023-10-16T15:29:01.457Z,99.90
2023-10-16T15:31:30.720Z,99.90
2023-10-16T15:33:58.410Z,99.90
2023-10-16T15:36:26.502Z,99.90
2023-10-16T15:38:53.362Z,99.90
2023-10-16T15:41:20.313Z,99.90
2023-10-16T15:43:52.458Z,99.90
2023-10-16T15:46:21.976Z,99.90
2023-10-16T15:48:49.165Z,99.90
2023-10-16T15:51:16.482Z,99.90
2023-10-16T15:53:47.576Z,99.90
2023-10-16T15:56:14.762Z,99.90
2023-10-16T15:58:41.867Z,99.90
2023-10-16T16:01:12.178Z,99.90
2023-10-16T16:03:40.999Z,99.90
2023-10-16T16:06:18.149Z,99.90
2023-10-16T16:08:46.196Z,99.90
2023-10-16T16:11:15.079Z,99.90
2023-10-16T16:13:44.914Z,99.90
2023-10-16T16:16:13.070Z,99.90
2023-10-16T16:18:40.681Z,99.90
2023-10-16T16:21:11.643Z,99.90
2023-10-16T16:23:39.721Z,99.90
2023-10-16T16:26:06.727Z,99.90
2023-10-16T16:28:33.660Z,99.90
2023-10-16T16:31:01.212Z,99.90
2023-10-16T16:33:31.077Z,99.90
2023-10-16T16:35:58.983Z,99.90
2023-10-16T16:38:26.442Z,99.90
2023-10-16T16:40:53.483Z,99.90
2023-10-16T16:43:21.155Z,99.90
2023-10-16T16:45:48.889Z,99.90
2023-10-16T16:48:17.817Z,1.00
2023-10-16T16:50:47.087Z,1.00
2023-10-16T16:53:14.974Z,1.00
2023-10-16T16:55:41.999Z,1.00
2023-10-16T16:58:12.048Z,1.00
2023-10-16T17:00:39.202Z,1.00
2023-10-16T17:03:06.427Z,1.00
2023-10-16T17:05:36.127Z,1.00
2023-10-16T17:08:04.142Z,1.00
2023-10-16T17:10:31.740Z,1.00
2023-10-16T17:12:59.301Z,1.00
2023-10-16T17:15:26.464Z,1.00
2023-10-16T17:17:54.681Z,1.00
2023-10-16T17:20:21.932Z,1.00
2023-10-16T17:23:05.266Z,1.00
2023-10-16T17:25:33.994Z,1.00
2023-10-16T17:28:01.068Z,1.00
2023-10-16T17:30:28.259Z,1.00
2023-10-16T17:32:56.689Z,1.00
2023-10-16T17:35:34.861Z,1.00
2023-10-16T17:38:02.298Z,1.00
2023-10-16T17:40:29.346Z,1.00
2023-10-16T17:42:57.036Z,1.00
2023-10-16T17:45:26.926Z,1.00
2023-10-16T17:47:53.960Z,1.00
2023-10-16T17:50:23.533Z,1.00
2023-10-16T17:52:54.092Z,1.00
2023-10-16T17:55:20.958Z,1.00
2023-10-16T17:57:48.398Z,4.90
2023-10-16T18:00:16.402Z,3.90
2023-10-16T18:02:45.034Z,39.70
2023-10-16T18:05:12.149Z,65.90
2023-10-16T18:07:42.470Z,99.90
2023-10-16T18:10:09.808Z,96.10
2023-10-16T18:12:36.785Z,99.90
2023-10-16T18:15:10.078Z,99.90
2023-10-16T18:17:37.630Z,99.90
2023-10-16T18:20:10.571Z,99.90
2023-10-16T18:22:38.188Z,99.90
2023-10-16T18:25:06.048Z,99.90
2023-10-16T18:27:33.363Z,99.90
2023-10-16T18:30:00.769Z,99.90
2023-10-16T18:32:28.080Z,99.90
2023-10-16T18:34:54.926Z,99.90
2023-10-16T18:37:21.739Z,99.90
2023-10-16T18:39:48.684Z,99.90
2023-10-16T18:42:16.840Z,99.90
2023-10-16T18:44:44.062Z,99.90
2023-10-16T18:47:14.119Z,99.90
2023-10-16T18:49:41.792Z,99.90
2023-10-16T18:52:10.459Z,1.00
2023-10-16T18:54:37.596Z,1.00
2023-10-16T18:57:04.631Z,1.00
2023-10-16T18:59:31.718Z,1.00
2023-10-16T19:02:00.333Z,1.00
2023-10-16T19:04:27.699Z,1.00
2023-10-16T19:06:55.176Z,1.00
2023-10-16T19:09:22.826Z,99.90
2023-10-16T19:11:49.886Z,99.90
2023-10-16T19:14:17.789Z,99.90
2023-10-16T19:16:44.841Z,99.90
2023-10-16T19:19:12.331Z,99.90
2023-10-16T19:21:40.405Z,99.90
2023-10-16T19:24:10.351Z,99.90
2023-10-16T19:26:38.279Z,99.90
2023-10-16T19:29:05.341Z,99.90
2023-10-16T19:31:32.713Z,99.90
2023-10-16T19:34:02.880Z,99.90
2023-10-16T19:36:30.622Z,1.00
2023-10-16T19:38:58.838Z,1.00
2023-10-16T19:41:35.076Z,1.00
2023-10-16T19:44:03.581Z,1.00
2023-10-16T19:46:30.835Z,1.00
2023-10-16T19:48:57.884Z,1.00
2023-10-16T19:51:24.953Z,1.00
2023-10-16T19:53:56.859Z,99.90
2023-10-16T19:56:24.480Z,99.90
2023-10-16T19:58:53.576Z,99.90
2023-10-16T20:01:23.837Z,99.90
2023-10-16T20:03:51.281Z,99.90
2023-10-16T20:06:20.315Z,99.90
2023-10-16T20:08:47.631Z,99.90
2023-10-16T20:11:14.828Z,99.90
2023-10-16T20:13:44.714Z,99.90
2023-10-16T20:16:13.652Z,99.90
2023-10-16T20:18:42.373Z,99.90
2023-10-16T20:21:19.518Z,1.00
2023-10-16T20:23:50.074Z,1.00
2023-10-16T20:26:17.884Z,1.00
2023-10-16T20:28:45.067Z,1.00
2023-10-16T20:31:12.962Z,1.00
2023-10-16T20:33:43.626Z,1.00
2023-10-16T20:36:10.799Z,99.90
2023-10-16T20:38:38.305Z,99.90
2023-10-16T20:41:06.480Z,99.90
2023-10-16T20:43:33.520Z,99.90
2023-10-16T20:46:04.009Z,1.00
2023-10-16T20:48:36.510Z,1.00
2023-10-16T20:51:04.025Z,1.00
2023-10-16T20:53:31.325Z,1.00
2023-10-16T20:55:58.222Z,97.80
2023-10-16T20:58:25.267Z,99.90
2023-10-16T21:00:56.853Z,1.00
2023-10-16T21:03:25.119Z,1.00
2023-10-16T21:05:52.813Z,7.40
2023-10-16T21:08:20.583Z,75.00
2023-10-16T21:10:47.921Z,99.90
2023-10-16T21:13:14.869Z,99.90
2023-10-16T21:15:43.224Z,99.90
2023-10-16T21:18:11.479Z,99.90
2023-10-16T21:20:38.635Z,99.90
2023-10-16T21:23:06.189Z,1.00
2023-10-16T21:25:33.908Z,1.00
2023-10-16T21:28:01.754Z,24.20
2023-10-16T21:30:30.372Z,1.00
2023-10-16T21:32:57.918Z,1.00
2023-10-16T21:35:26.237Z,1.00
2023-10-16T21:37:53.522Z,1.00
2023-10-16T21:40:23.006Z,99.90
2023-10-16T21:42:50.591Z,10.90
2023-10-16T21:45:17.615Z,47.30
2023-10-16T21:47:45.763Z,99.90
2023-10-16T21:50:12.808Z,1.00
2023-10-16T21:52:39.545Z,1.00
2023-10-16T21:55:07.446Z,1.00
2023-10-16T21:57:34.857Z,99.90
2023-10-16T22:00:02.234Z,99.90
2023-10-16T22:02:35.030Z,51.90
2023-10-16T22:05:01.817Z,99.90
2023-10-16T22:07:28.673Z,99.90
2023-10-16T22:09:55.689Z,99.90
2023-10-16T22:12:23.617Z,99.90
2023-10-16T22:14:50.943Z,99.90
2023-10-16T22:17:17.838Z,99.90
2023-10-16T22:19:44.732Z,99.90
2023-10-16T22:22:11.918Z,99.90
2023-10-16T22:24:41.498Z,99.90
2023-10-16T22:27:08.925Z,99.90
2023-10-16T22:29:36.483Z,99.90
2023-10-16T22:32:03.408Z,99.90
2023-10-16T22:34:30.217Z,1.00
2023-10-16T22:36:57.262Z,1.00
2023-10-16T22:39:29.056Z,1.00
2023-10-16T22:41:58.311Z,1.00
2023-10-16T22:44:26.008Z,99.90
2023-10-16T22:46:53.280Z,99.90
2023-10-16T22:49:20.638Z,99.90
2023-10-16T22:51:47.488Z,99.90
2023-10-16T22:54:14.449Z,99.90
2023-10-16T22:56:42.975Z,99.90
2023-10-16T22:59:09.878Z,1.00
2023-10-16T23:01:40.380Z,1.00
2023-10-16T23:04:08.033Z,1.00
2023-10-16T23:06:35.521Z,1.00
2023-10-16T23:09:02.380Z,1.00
2023-10-16T23:11:29.418Z,1.00
2023-10-16T23:13:56.773Z,99.90
2023-10-16T23:16:28.611Z,1.00
2023-10-16T23:18:56.454Z,1.00
2023-10-16T23:21:23.972Z,1.00
2023-10-16T23:23:51.940Z,1.00
2023-10-16T23:26:21.529Z,1.00
2023-10-16T23:28:48.421Z,1.00
2023-10-16T23:31:16.058Z,1.00
2023-10-16T23:33:57.651Z,1.00
2023-10-16T23:36:27.672Z,1.00
2023-10-16T23:38:54.796Z,1.00
2023-10-16T23:41:42.416Z,1.00
2023-10-16T23:44:22.369Z,16.30
2023-10-16T23:46:56.972Z,34.00
2023-10-16T23:49:24.538Z,59.00
2023-10-16T23:51:56.601Z,43.40
2023-10-16T23:54:38.624Z,26.70
2023-10-16T23:57:28.848Z,14.80
